createdAt,value
2018-12-24T00:02:09.703Z,8.10
2018-12-24T00:04:42.357Z,8.20
2018-12-24T00:07:13.049Z,8.60
2018-12-24T00:09:45.280Z,8.83
2018-12-24T00:12:15.687Z,9.30
2018-12-24T00:14:48.957Z,9.37
2018-12-24T00:17:24.074Z,11.40
2018-12-24T00:19:54.916Z,7.70
2018-12-24T00:22:25.833Z,11.83
2018-12-24T00:24:57.058Z,8.60
2018-12-24T00:27:28.499Z,8.00
2018-12-24T00:29:59.535Z,9.87
2018-12-24T00:32:30.006Z,7.10
2018-12-24T00:35:03.312Z,7.33
2018-12-24T00:37:34.105Z,7.37
2018-12-24T00:40:05.060Z,5.53
2018-12-24T00:42:35.357Z,5.40
2018-12-24T00:45:07.932Z,5.10
2018-12-24T00:47:38.238Z,7.03
2018-12-24T00:50:08.945Z,5.57
2018-12-24T00:52:39.806Z,5.17
2018-12-24T00:55:10.781Z,5.13
2018-12-24T00:57:41.735Z,5.60
2018-12-24T01:00:12.662Z,5.70
2018-12-24T01:02:43.665Z,4.40
2018-12-24T01:05:17.332Z,4.10
2018-12-24T01:07:51.184Z,4.70
2018-12-24T01:10:22.016Z,3.90
2018-12-24T01:12:56.088Z,5.23
2018-12-24T01:15:27.878Z,3.70
2018-12-24T01:17:58.656Z,4.00
2018-12-24T01:20:29.307Z,5.07
2018-12-24T01:23:00.035Z,3.10
2018-12-24T01:25:30.980Z,3.67
2018-12-24T01:28:01.988Z,3.47
2018-12-24T01:30:33.171Z,5.13
2018-12-24T01:33:03.947Z,5.23
2018-12-24T01:35:34.203Z,3.40
2018-12-24T01:38:04.225Z,4.20
2018-12-24T01:40:34.229Z,4.57
2018-12-24T01:43:04.184Z,4.50
2018-12-24T01:45:34.191Z,6.00
2018-12-24T01:48:05.320Z,5.07
2018-12-24T01:50:38.960Z,6.07
2018-12-24T01:53:09.131Z,4.70
2018-12-24T01:55:39.946Z,5.27
2018-12-24T01:58:10.311Z,7.80
2018-12-24T02:00:40.670Z,5.67
2018-12-24T02:03:11.291Z,6.27
2018-12-24T02:05:41.611Z,4.67
2018-12-24T02:08:14.685Z,5.67
2018-12-24T02:10:46.234Z,4.47
2018-12-24T02:13:16.758Z,7.83
2018-12-24T02:15:47.615Z,6.10
2018-12-24T02:18:17.952Z,5.47
2018-12-24T02:20:48.079Z,4.73
2018-12-24T02:23:18.577Z,5.67
2018-12-24T02:25:49.181Z,6.20
2018-12-24T02:28:19.913Z,6.23
2018-12-24T02:30:50.538Z,5.00
2018-12-24T02:33:20.990Z,5.40
2018-12-24T02:35:51.513Z,4.90
2018-12-24T02:38:21.779Z,5.70
2018-12-24T02:40:51.941Z,5.07
2018-12-24T02:43:23.556Z,4.93
2018-12-24T02:45:54.648Z,4.43
2018-12-24T02:48:25.101Z,4.63
2018-12-24T02:50:55.591Z,4.13
2018-12-24T02:53:25.613Z,4.60
2018-12-24T02:55:55.999Z,4.63
2018-12-24T02:58:26.648Z,4.00
2018-12-24T03:00:57.174Z,3.93
2018-12-24T03:03:27.575Z,3.10
2018-12-24T03:06:00.419Z,3.30
2018-12-24T03:08:30.908Z,5.80
2018-12-24T03:11:01.027Z,4.37
2018-12-24T03:13:31.450Z,5.60
2018-12-24T03:16:01.500Z,4.47
2018-12-24T03:18:31.607Z,4.83
2018-12-24T03:21:01.747Z,3.80
2018-12-24T03:23:32.010Z,3.70
2018-12-24T03:26:02.992Z,3.00
2018-12-24T03:28:35.832Z,4.40
2018-12-24T03:31:09.899Z,2.60
2018-12-24T03:33:40.109Z,3.60
2018-12-24T03:36:10.260Z,3.37
2018-12-24T03:38:40.210Z,2.77
2018-12-24T03:41:10.169Z,3.63
2018-12-24T03:43:40.406Z,3.47
2018-12-24T03:46:10.752Z,2.77
2018-12-24T03:48:40.790Z,4.90
2018-12-24T03:51:10.958Z,2.80
2018-12-24T03:53:41.061Z,3.40
2018-12-24T03:56:11.356Z,4.40
2018-12-24T03:58:41.849Z,2.93
2018-12-24T04:01:12.137Z,3.27
2018-12-24T04:03:42.585Z,2.93
2018-12-24T04:06:12.794Z,4.77
2018-12-24T04:08:43.411Z,4.87
2018-12-24T04:11:13.542Z,4.97
2018-12-24T04:13:43.810Z,4.67
2018-12-24T04:16:13.887Z,2.80
2018-12-24T04:18:43.873Z,3.97
2018-12-24T04:21:13.996Z,4.30
2018-12-24T04:23:43.861Z,3.00
2018-12-24T04:26:14.221Z,3.37
2018-12-24T04:28:43.957Z,4.20
2018-12-24T04:31:13.632Z,4.90
2018-12-24T04:33:43.908Z,5.83
2018-12-24T04:36:14.350Z,4.90
2018-12-24T04:38:45.056Z,5.53
2018-12-24T04:41:15.134Z,6.80
2018-12-24T04:43:45.477Z,4.70
2018-12-24T04:46:15.307Z,5.80
2018-12-24T04:48:45.529Z,5.70
2018-12-24T04:51:15.750Z,5.90
2018-12-24T04:53:45.913Z,4.60
2018-12-24T04:56:16.302Z,5.00
2018-12-24T04:58:46.898Z,7.40
2018-12-24T05:01:16.940Z,5.63
2018-12-24T05:03:47.059Z,4.13
2018-12-24T05:06:16.991Z,3.73
2018-12-24T05:08:49.771Z,3.83
2018-12-24T05:11:20.015Z,4.40
2018-12-24T05:13:50.226Z,3.57
2018-12-24T05:16:19.956Z,4.07
2018-12-24T05:18:49.588Z,3.97
2018-12-24T05:21:19.735Z,2.33
2018-12-24T05:23:49.560Z,2.87
2018-12-24T05:26:19.267Z,2.70
2018-12-24T05:28:48.928Z,6.30
2018-12-24T05:31:19.151Z,2.13
2018-12-24T05:33:51.676Z,3.10
2018-12-24T05:36:21.601Z,2.57
2018-12-24T05:38:51.290Z,4.70
2018-12-24T05:41:21.012Z,3.27
2018-12-24T05:43:50.949Z,3.77
2018-12-24T05:46:21.042Z,2.10
2018-12-24T05:48:50.859Z,3.20
2018-12-24T05:51:20.864Z,2.23
2018-12-24T05:53:50.529Z,3.13
2018-12-24T05:56:20.416Z,2.37
2018-12-24T05:58:50.457Z,3.57
2018-12-24T06:01:20.869Z,3.00
2018-12-24T06:03:50.554Z,4.13
2018-12-24T06:06:20.774Z,2.57
2018-12-24T06:08:51.073Z,2.47
2018-12-24T06:11:21.277Z,2.93
2018-12-24T06:13:57.952Z,2.67
2018-12-24T06:16:22.754Z,1.87
2018-12-24T06:18:53.092Z,2.10
2018-12-24T06:21:23.503Z,2.07
2018-12-24T06:23:53.695Z,2.20
2018-12-24T06:26:23.938Z,3.30
2018-12-24T06:28:54.507Z,2.53
2018-12-24T06:31:24.756Z,2.17
2018-12-24T06:33:55.398Z,3.00
2018-12-24T06:36:25.506Z,3.50
2018-12-24T06:38:55.323Z,2.03
2018-12-24T06:41:31.919Z,2.87
2018-12-24T06:44:06.704Z,1.83
2018-12-24T06:46:32.249Z,2.00
2018-12-24T06:49:05.326Z,2.50
2018-12-24T06:51:35.255Z,3.17
2018-12-24T06:54:05.238Z,2.60
2018-12-24T06:56:37.792Z,2.60
2018-12-24T06:59:07.849Z,2.43
2018-12-24T07:01:37.503Z,2.20
2018-12-24T07:04:07.277Z,4.47
2018-12-24T07:06:37.362Z,2.53
2018-12-24T07:09:07.373Z,3.93
2018-12-24T07:11:37.465Z,2.50
2018-12-24T07:14:15.268Z,2.10
2018-12-24T07:16:39.193Z,1.80
2018-12-24T07:19:09.628Z,2.70
2018-12-24T07:21:39.929Z,4.70
2018-12-24T07:24:09.796Z,2.10
2018-12-24T07:26:39.872Z,2.07
2018-12-24T07:29:09.824Z,4.63
2018-12-24T07:31:39.759Z,3.00
2018-12-24T07:34:09.548Z,2.47
2018-12-24T07:36:42.581Z,2.00
2018-12-24T07:39:12.919Z,3.20
2018-12-24T07:41:43.177Z,2.73
2018-12-24T07:44:13.166Z,2.37
2018-12-24T07:46:43.198Z,2.50
2018-12-24T07:49:13.249Z,2.27
2018-12-24T07:51:43.397Z,3.00
2018-12-24T07:54:14.571Z,2.33
2018-12-24T07:56:44.669Z,2.90
2018-12-24T07:59:14.400Z,2.43
2018-12-24T08:01:44.108Z,2.57
2018-12-24T08:04:16.375Z,2.83
2018-12-24T08:06:46.390Z,2.90
2018-12-24T08:09:16.621Z,4.10
2018-12-24T08:11:46.773Z,3.30
2018-12-24T08:14:19.444Z,7.10
2018-12-24T08:16:49.499Z,3.47
2018-12-24T08:19:19.131Z,4.70
2018-12-24T08:21:49.274Z,3.77
2018-12-24T08:24:20.507Z,2.83
2018-12-24T08:26:53.356Z,3.23
2018-12-24T08:29:21.921Z,3.67
2018-12-24T08:31:51.962Z,4.07
2018-12-24T08:34:21.870Z,3.37
2018-12-24T08:36:51.923Z,3.33
2018-12-24T08:39:21.623Z,3.57
2018-12-24T08:41:51.370Z,2.50
2018-12-24T08:44:21.422Z,3.90
2018-12-24T08:46:51.122Z,2.77
2018-12-24T08:49:21.428Z,3.00
2018-12-24T08:51:51.182Z,3.07
2018-12-24T08:54:20.957Z,2.37
2018-12-24T08:56:50.862Z,3.77
2018-12-24T08:59:20.731Z,2.80
2018-12-24T09:01:50.658Z,2.10
2018-12-24T09:04:21.218Z,4.83
2018-12-24T09:06:51.414Z,4.13
2018-12-24T09:09:24.850Z,4.73
2018-12-24T09:11:55.379Z,3.33
2018-12-24T09:14:29.147Z,4.30
2018-12-24T09:16:59.321Z,4.80
2018-12-24T09:19:29.701Z,2.70
2018-12-24T09:22:00.194Z,3.23
2018-12-24T09:24:30.144Z,4.60
2018-12-24T09:27:01.130Z,4.90
2018-12-24T09:29:31.527Z,2.40
2018-12-24T09:32:01.735Z,2.80
2018-12-24T09:34:31.828Z,4.13
2018-12-24T09:37:01.311Z,4.70
2018-12-24T09:39:39.299Z,3.20
2018-12-24T09:42:09.082Z,2.40
2018-12-24T09:44:40.622Z,3.33
2018-12-24T09:47:11.334Z,3.03
2018-12-24T09:49:44.537Z,2.10
2018-12-24T09:52:14.231Z,3.93
2018-12-24T09:54:51.074Z,3.63
2018-12-24T09:57:21.042Z,3.03
2018-12-24T09:59:57.748Z,5.70
2018-12-24T10:02:30.991Z,2.50
2018-12-24T10:05:02.908Z,2.17
2018-12-24T10:07:34.821Z,3.03
2018-12-24T10:10:07.051Z,2.80
2018-12-24T10:12:37.718Z,2.80
2018-12-24T10:15:08.713Z,3.57
2018-12-24T10:17:42.230Z,1.80
2018-12-24T10:20:13.295Z,1.60
2018-12-24T10:22:47.148Z,2.83
2018-12-24T10:25:21.089Z,1.87
2018-12-24T10:27:51.598Z,1.70
2018-12-24T10:30:36.661Z,4.30
2018-12-24T10:33:07.138Z,2.80
2018-12-24T10:35:39.684Z,2.53
2018-12-24T10:38:14.238Z,2.40
2018-12-24T10:40:47.538Z,2.40
2018-12-24T10:43:19.637Z,2.67
2018-12-24T10:45:50.334Z,2.70
2018-12-24T10:48:20.301Z,3.00
2018-12-24T10:50:53.177Z,2.60
2018-12-24T10:53:24.887Z,3.30
2018-12-24T10:56:01.034Z,3.40
2018-12-24T10:58:44.896Z,3.37
2018-12-24T11:01:15.800Z,3.60
2018-12-24T11:03:50.776Z,5.33
2018-12-24T11:06:21.916Z,4.37
2018-12-24T11:08:53.103Z,4.20
2018-12-24T11:11:23.629Z,4.80
2018-12-24T11:13:58.579Z,3.60
2018-12-24T11:16:28.851Z,5.83
2018-12-24T11:18:59.551Z,5.87
2018-12-24T11:21:29.851Z,5.97
2018-12-24T11:24:01.619Z,5.67
2018-12-24T11:26:32.111Z,6.33
2018-12-24T11:29:05.243Z,6.70
2018-12-24T11:31:35.430Z,5.30
2018-12-24T11:34:05.262Z,7.10
2018-12-24T11:36:35.007Z,6.90
2018-12-24T11:39:05.934Z,7.77
2018-12-24T11:41:35.723Z,6.73
2018-12-24T11:44:05.591Z,6.83
2018-12-24T11:46:35.694Z,5.47
2018-12-24T11:49:05.396Z,3.90
2018-12-24T11:51:35.062Z,4.80
2018-12-24T11:54:04.642Z,3.60
2018-12-24T11:56:34.176Z,3.47
2018-12-24T11:59:04.066Z,6.20
2018-12-24T12:01:34.348Z,2.77
2018-12-24T12:04:04.340Z,2.57
2018-12-24T12:06:34.439Z,3.13
2018-12-24T12:09:06.955Z,2.97
2018-12-24T12:11:36.971Z,3.80
2018-12-24T12:14:06.973Z,2.33
2018-12-24T12:16:36.741Z,2.40
2018-12-24T12:19:06.574Z,2.63
2018-12-24T12:21:36.451Z,2.77
2018-12-24T12:24:06.067Z,2.70
2018-12-24T12:26:35.901Z,2.67
2018-12-24T12:29:05.549Z,3.10
2018-12-24T12:31:35.037Z,3.00
2018-12-24T12:34:04.820Z,3.37
2018-12-24T12:36:34.498Z,3.30
2018-12-24T12:39:06.030Z,4.20
2018-12-24T12:41:35.649Z,3.67
2018-12-24T12:44:05.449Z,3.17
2018-12-24T12:46:35.010Z,2.60
2018-12-24T12:49:04.932Z,3.20
2018-12-24T12:51:34.644Z,2.27
2018-12-24T12:54:04.575Z,2.43
2018-12-24T12:56:34.205Z,4.07
2018-12-24T12:59:03.804Z,2.80
2018-12-24T13:01:33.376Z,3.17
2018-12-24T13:04:03.262Z,2.60
2018-12-24T13:06:32.794Z,3.07
2018-12-24T13:09:02.642Z,3.50
2018-12-24T13:11:32.363Z,3.60
2018-12-24T13:14:02.383Z,2.47
2018-12-24T13:16:32.309Z,3.13
2018-12-24T13:19:01.836Z,3.67
2018-12-24T13:21:31.411Z,2.77
2018-12-24T13:24:00.871Z,2.50
2018-12-24T13:26:31.024Z,3.20
2018-12-24T13:29:00.669Z,2.87
2018-12-24T13:31:30.614Z,4.00
2018-12-24T13:34:00.402Z,3.23
2018-12-24T13:36:30.343Z,3.00
2018-12-24T13:39:00.010Z,4.13
2018-12-24T13:41:29.766Z,3.33
2018-12-24T13:43:59.501Z,6.00
2018-12-24T13:46:29.194Z,4.00
2018-12-24T13:48:58.863Z,5.37
2018-12-24T13:52:36.878Z,4.93
2018-12-24T13:55:06.360Z,9.67
2018-12-24T13:57:35.781Z,5.77
2018-12-24T14:00:05.938Z,5.60
2018-12-24T14:02:35.609Z,4.47
2018-12-24T14:05:05.272Z,6.70
2018-12-24T14:07:34.752Z,6.67
2018-12-24T14:10:05.375Z,6.30
2018-12-24T14:12:35.049Z,6.57
2018-12-24T14:15:05.952Z,6.80
2018-12-24T14:17:35.592Z,6.27
2018-12-24T14:20:06.535Z,7.20
2018-12-24T14:22:36.260Z,6.73
2018-12-24T14:25:05.882Z,9.50
2018-12-24T14:27:35.272Z,6.00
2018-12-24T14:30:08.010Z,6.27
2018-12-24T14:32:37.500Z,6.63
2018-12-24T14:35:07.131Z,8.40
2018-12-24T14:37:36.552Z,7.17
2018-12-24T14:40:07.160Z,7.03
2018-12-24T14:42:37.158Z,6.27
2018-12-24T14:45:10.834Z,5.33
2018-12-24T14:47:40.828Z,6.60
2018-12-24T14:50:11.104Z,6.20
2018-12-24T14:52:41.478Z,6.13
2018-12-24T14:55:11.715Z,5.40
2018-12-24T14:57:41.550Z,7.97
2018-12-24T15:00:10.968Z,8.57
2018-12-24T15:02:44.000Z,7.70
2018-12-24T15:05:15.530Z,10.13
2018-12-24T15:08:01.805Z,12.87
2018-12-24T15:10:34.613Z,6.27
2018-12-24T15:13:05.290Z,6.60
2018-12-24T15:15:39.304Z,6.90
2018-12-24T15:18:35.798Z,7.10
2018-12-24T15:21:07.797Z,8.23
2018-12-24T15:23:37.982Z,8.40
2018-12-24T15:26:11.452Z,7.80
2018-12-24T15:28:41.655Z,6.60
2018-12-24T15:31:11.972Z,11.77
2018-12-24T15:33:42.404Z,9.00
2018-12-24T15:36:12.315Z,8.27
2018-12-24T15:38:42.116Z,7.40
2018-12-24T15:41:12.203Z,8.10
2018-12-24T15:43:41.781Z,9.03
2018-12-24T15:46:11.753Z,8.37
2018-12-24T15:48:41.353Z,10.13
2018-12-24T15:51:11.187Z,9.83
2018-12-24T15:53:41.065Z,10.07
2018-12-24T15:56:17.288Z,9.90
2018-12-24T15:58:47.135Z,12.00
2018-12-24T16:01:16.760Z,8.43
2018-12-24T16:03:47.479Z,7.87
2018-12-24T16:06:17.155Z,8.20
2018-12-24T16:08:47.100Z,7.23
2018-12-24T16:11:17.124Z,9.10
2018-12-24T16:13:50.631Z,8.97
2018-12-24T16:16:20.678Z,7.60
2018-12-24T16:18:50.416Z,7.87
2018-12-24T16:21:20.490Z,9.57
2018-12-24T16:23:50.793Z,10.07
2018-12-24T16:26:20.741Z,8.00
2018-12-24T16:28:50.142Z,8.60
2018-12-24T16:31:19.933Z,7.07
2018-12-24T16:33:49.458Z,7.20
2018-12-24T16:36:19.209Z,7.43
2018-12-24T16:38:49.370Z,8.77
2018-12-24T16:41:18.916Z,10.90
2018-12-24T16:43:48.766Z,9.10
2018-12-24T16:46:19.156Z,7.47
2018-12-24T16:48:50.795Z,11.70
2018-12-24T16:51:26.736Z,7.70
2018-12-24T16:53:56.309Z,8.60
2018-12-24T16:56:25.870Z,9.50
2018-12-24T16:58:55.398Z,10.30
2018-12-24T17:01:24.905Z,10.03
2018-12-24T17:03:54.452Z,10.83
2018-12-24T17:06:23.817Z,8.87
2018-12-24T17:08:53.691Z,9.80
2018-12-24T17:11:23.657Z,8.27
2018-12-24T17:13:53.666Z,10.00
2018-12-24T17:16:23.447Z,7.90
2018-12-24T17:18:53.370Z,8.70
2018-12-24T17:21:23.191Z,8.40
2018-12-24T17:23:53.297Z,8.47
2018-12-24T17:26:23.431Z,10.13
2018-12-24T17:28:53.976Z,7.97
2018-12-24T17:31:23.563Z,9.30
2018-12-24T17:33:53.942Z,8.40
2018-12-24T17:36:23.602Z,7.33
2018-12-24T17:38:53.525Z,6.93
2018-12-24T17:41:23.407Z,7.03
2018-12-24T17:43:52.991Z,7.27
2018-12-24T17:46:22.474Z,5.40
2018-12-24T17:48:52.004Z,6.13
2018-12-24T17:51:21.761Z,7.03
2018-12-24T17:53:53.815Z,8.17
2018-12-24T17:56:23.719Z,6.83
2018-12-24T17:58:53.295Z,6.93
2018-12-24T18:01:22.985Z,8.73
2018-12-24T18:03:53.136Z,7.80
2018-12-24T18:06:26.672Z,13.97
2018-12-24T18:08:56.583Z,6.77
2018-12-24T18:11:26.729Z,9.83
2018-12-24T18:13:56.963Z,7.90
2018-12-24T18:16:27.220Z,7.03
2018-12-24T18:18:57.401Z,7.60
2018-12-24T18:21:27.406Z,7.97
2018-12-24T18:23:56.882Z,10.33
2018-12-24T18:26:26.433Z,15.80
2018-12-24T18:28:55.891Z,6.70
2018-12-24T18:31:25.454Z,7.53
2018-12-24T18:33:54.906Z,7.90
2018-12-24T18:36:24.877Z,7.23
2018-12-24T18:38:55.200Z,12.30
2018-12-24T18:41:24.904Z,6.47
2018-12-24T18:43:54.887Z,9.93
2018-12-24T18:46:24.643Z,5.43
2018-12-24T18:48:54.595Z,15.73
2018-12-24T18:51:24.599Z,8.97
2018-12-24T18:53:55.014Z,6.57
2018-12-24T18:56:25.028Z,7.87
2018-12-24T18:58:54.833Z,7.03
2018-12-24T19:01:24.691Z,4.47
2018-12-24T19:03:54.482Z,4.27
2018-12-24T19:06:24.655Z,8.30
2018-12-24T19:08:54.272Z,7.70
2018-12-24T19:11:23.910Z,8.93
2018-12-24T19:13:53.966Z,4.30
2018-12-24T19:16:23.728Z,5.10
2018-12-24T19:18:53.990Z,8.07
2018-12-24T19:21:25.774Z,6.50
2018-12-24T19:23:57.080Z,5.67
2018-12-24T19:26:27.423Z,7.23
2018-12-24T19:28:58.559Z,6.17
2018-12-24T19:31:29.271Z,9.93
2018-12-24T19:33:59.574Z,7.33
2018-12-24T19:36:29.310Z,6.67
2018-12-24T19:39:00.041Z,5.10
2018-12-24T19:41:29.756Z,8.13
2018-12-24T19:44:01.528Z,6.20
2018-12-24T19:46:32.759Z,8.37
2018-12-24T19:49:02.943Z,7.27
2018-12-24T19:51:32.694Z,5.70
2018-12-24T19:54:03.235Z,6.73
2018-12-24T19:56:32.735Z,7.13
2018-12-24T19:59:02.989Z,8.00
2018-12-24T20:01:33.066Z,7.00
2018-12-24T20:04:02.840Z,5.80
2018-12-24T20:06:32.887Z,3.93
2018-12-24T20:09:04.454Z,6.60
2018-12-24T20:11:34.900Z,5.20
2018-12-24T20:14:06.431Z,4.63
2018-12-24T20:16:36.714Z,8.00
2018-12-24T20:19:06.858Z,4.40
2018-12-24T20:21:37.828Z,8.47
2018-12-24T20:24:08.024Z,10.33
2018-12-24T20:26:38.376Z,4.50
2018-12-24T20:29:08.134Z,8.73
2018-12-24T20:31:38.617Z,7.93
2018-12-24T20:34:08.933Z,8.30
2018-12-24T20:36:42.236Z,10.50
2018-12-24T20:39:13.125Z,10.87
2018-12-24T20:41:44.455Z,10.97
2018-12-24T20:44:15.044Z,4.10
2018-12-24T20:46:46.135Z,9.40
2018-12-24T20:49:18.926Z,14.97
2018-12-24T20:51:51.428Z,8.90
2018-12-24T20:54:22.216Z,5.73
2018-12-24T20:56:51.928Z,5.40
2018-12-24T20:59:27.188Z,5.10
2018-12-24T21:01:59.366Z,9.40
2018-12-24T21:04:31.287Z,5.30
2018-12-24T21:07:01.923Z,7.53
2018-12-24T21:09:35.728Z,8.97
2018-12-24T21:12:06.057Z,6.20
2018-12-24T21:14:36.883Z,11.47
2018-12-24T21:17:10.398Z,7.60
2018-12-24T21:19:40.804Z,5.63
2018-12-24T21:22:11.275Z,8.00
2018-12-24T21:24:41.052Z,7.33
2018-12-24T21:27:12.683Z,8.33
2018-12-24T21:29:43.239Z,4.27
2018-12-24T21:32:13.760Z,11.00
2018-12-24T21:34:43.857Z,6.63
2018-12-24T21:37:16.078Z,9.37
2018-12-24T21:39:46.300Z,8.77
2018-12-24T21:42:19.457Z,7.53
2018-12-24T21:44:54.799Z,6.43
2018-12-24T21:47:54.836Z,7.10
2018-12-24T21:50:27.910Z,7.10
2018-12-24T21:52:59.969Z,9.73
2018-12-24T21:55:31.749Z,6.67
2018-12-24T21:58:03.117Z,11.63
2018-12-24T22:00:34.660Z,7.60
2018-12-24T22:03:08.771Z,8.50
2018-12-24T22:05:39.404Z,9.37
2018-12-24T22:08:11.209Z,11.40
2018-12-24T22:10:42.591Z,5.67
2018-12-24T22:13:13.011Z,8.07
2018-12-24T22:15:44.934Z,11.53
2018-12-24T22:18:17.145Z,7.20
2018-12-24T22:20:48.002Z,8.07
2018-12-24T22:23:19.129Z,8.77
2018-12-24T22:25:50.538Z,13.80
2018-12-24T22:28:22.615Z,4.30
2018-12-24T22:30:55.382Z,8.77
2018-12-24T22:33:27.532Z,6.63
2018-12-24T22:35:57.881Z,10.80
2018-12-24T22:38:31.409Z,7.77
2018-12-24T22:41:02.031Z,5.90
2018-12-24T22:43:33.251Z,9.07
2018-12-24T22:46:03.753Z,5.87
2018-12-24T22:48:40.641Z,6.43
2018-12-24T22:51:09.752Z,6.30
2018-12-24T22:53:40.246Z,7.83
2018-12-24T22:56:10.823Z,8.60
2018-12-24T22:58:40.641Z,6.40
2018-12-24T23:01:12.330Z,9.47
2018-12-24T23:03:45.848Z,7.03
2018-12-24T23:06:16.996Z,5.87
2018-12-24T23:08:48.048Z,7.97
2018-12-24T23:11:19.663Z,10.20
2018-12-24T23:13:52.527Z,5.90
2018-12-24T23:16:22.467Z,7.57
2018-12-24T23:18:52.145Z,8.73
2018-12-24T23:21:22.709Z,4.30
2018-12-24T23:23:52.748Z,6.63
2018-12-24T23:26:22.566Z,7.20
2018-12-24T23:28:52.916Z,5.43
2018-12-24T23:31:22.950Z,6.53
2018-12-24T23:33:55.639Z,4.93
2018-12-24T23:36:25.604Z,6.23
2018-12-24T23:38:56.248Z,4.47
2018-12-24T23:41:27.219Z,4.93
2018-12-24T23:44:00.850Z,6.37
2018-12-24T23:46:31.373Z,5.90
2018-12-24T23:49:02.198Z,9.43
2018-12-24T23:51:32.718Z,5.73
2018-12-24T23:54:04.204Z,5.63
2018-12-24T23:56:34.888Z,5.17
2018-12-24T23:59:07.865Z,9.50
